Etusivu
METAR-TAF:

METAR-TAF

Lentoasemat :

Davenport Municipal Airport

Davenport, Iowa, Yhdysvallat

Leveyspiiri: 41-36-50N, Pituuspiiri: 090-35-29W, korkeus merenpinnasta: 229 m

Tämänhetkinen sää

Tämä raportti tehtiin 28 minuuttia sitten, kello 16.52 UTC
Tuuli 14 kn etelästä
Lämpötila -5°C
Kosteus 58%
Ilmanpaine 1019 hPa
Näkyvyys: 16.1 km
selkeää

METAR: KDVN 131652Z AUTO 19014KT 10SM CLR M05/M12 A3010 RMK AO2 SLP203 T10501117

Aika: 11:20 (17:20 UTC)


TAF: puuttuu

Säähavainnot ja -ennusteet yli 4000 lentoasemalta (METAR- ja TAF-raportit).

Käytössä olevat sääasemat on merkitty karttaan keltaisilla ja punaisilla pisteillä.

Aseta hiiri pisteen päälle nähdäksesi sääaseman nimen.

Klikkaa sitten nähdäksesi säähavainnot ja -ennusteet.

Kartan vaihtaminen: klikkaa mustalla rastilla varustettuja vihreitä pisteitä, niin voit zoomata sisään; viivalla varustettua vihreää pistettä, niin voit zoomata ulos tai vihreitä nuolia, niin pääset viereisille kartoille.


METAR-TAF: